Time;durP1;ratioP1;P1;durP2;ratioP2;P2;SDS_P1;SDS_P2;PMS_P1;PMS_P2;Temp;Humidity;BMP_temperature;BMP_pressure;BME280_temperature;BME280_humidity;BME280_pressure;Samples;Min_cycle;Max_cycle;Signal;HPM_P1;HPM_P2
2022/01/15 00:01:50;;;;;;;49.78;27.98;;;3.20;99.90;;;2.45;96.78;102672.34;4168371;28;20037;-72
2022/01/15 00:03:51;;;;;;;47.35;25.48;;;3.10;99.90;;;2.16;98.02;102671.63;4167345;28;20040;-72
2022/01/15 00:05:52;;;;;;;50.53;27.20;;;2.10;99.90;;;2.46;95.14;102682.69;4167212;28;20536;-72
2022/01/15 00:07:53;;;;;;;50.47;26.55;;;3.10;99.90;;;2.27;97.14;102680.81;4150435;28;20100;-72
2022/01/15 00:09:54;;;;;;;46.40;25.50;;;3.00;99.90;;;2.33;97.48;102670.19;4166932;28;20029;-72
2022/01/15 00:11:55;;;;;;;51.30;26.75;;;3.10;99.90;;;2.63;94.36;102658.59;4170245;28;20079;-72
2022/01/15 00:14:12;;;;;;;45.75;25.65;;;3.60;99.90;;;2.69;94.42;102660.97;4183622;28;20024;-72
2022/01/15 00:16:27;;;;;;;42.80;24.73;;;2.50;99.90;;;2.41;95.78;102655.97;4169918;28;20025;-72
2022/01/15 00:18:40;;;;;;;;;;;4.50;99.90;;;2.42;97.86;102664.63;4167561;28;20036;-72
2022/01/15 00:20:42;;;;;;;48.75;25.08;;;3.10;99.90;;;2.44;99.10;102649.78;4167271;28;19913;-72
2022/01/15 00:22:43;;;;;;;48.38;28.17;;;1.40;99.90;;;2.43;98.01;102664.56;4156188;28;20033;-72
2022/01/15 00:24:46;;;;;;;51.55;28.20;;;5.20;99.90;;;2.21;98.16;102654.09;4165510;28;20112;-72
2022/01/15 00:26:47;;;;;;;49.75;26.92;;;2.70;99.90;;;2.24;96.66;102659.19;4166319;28;20026;-72
2022/01/15 00:28:48;;;;;;;47.85;27.50;;;2.90;99.90;;;2.04;97.08;102648.66;4150650;28;20029;-72
2022/01/15 00:30:48;;;;;;;50.55;28.25;;;2.90;99.90;;;1.84;98.17;102640.69;4166972;28;20021;-72
2022/01/15 00:32:52;;;;;;;50.90;28.70;;;4.10;99.90;;;1.99;99.22;102647.13;4150507;28;20049;-72
2022/01/15 00:34:53;;;;;;;46.42;26.98;;;3.10;99.90;;;2.02;100.00;102647.00;4168270;28;20018;-72
2022/01/15 00:36:54;;;;;;;49.30;28.10;;;5.30;99.90;;;2.08;99.49;102632.03;4166814;28;20100;-72
2022/01/15 00:38:55;;;;;;;49.28;27.10;;;3.10;99.90;;;2.06;100.00;102640.81;4166580;28;20044;-72
2022/01/15 00:40:56;;;;;;;49.40;26.25;;;2.50;99.90;;;2.05;100.00;102642.53;4167922;28;20687;-72
2022/01/15 00:42:57;;;;;;;48.25;26.30;;;2.10;99.90;;;1.93;100.00;102624.75;4167037;28;20064;-72
2022/01/15 00:45:00;;;;;;;52.42;27.45;;;0.90;99.90;;;1.87;100.00;102627.59;4167021;28;20021;-72
2022/01/15 00:47:01;;;;;;;49.40;28.80;;;0.60;99.90;;;2.00;100.00;102618.41;4150481;28;20025;-72
2022/01/15 00:49:02;;;;;;;48.88;26.55;;;2.20;99.90;;;2.03;100.00;102613.09;4166720;28;20579;-72
2022/01/15 00:51:03;;;;;;;48.47;27.23;;;2.90;99.90;;;2.22;100.00;102608.94;4150237;28;20088;-72
2022/01/15 00:53:04;;;;;;;45.55;25.70;;;2.90;99.90;;;2.21;100.00;102616.81;4167907;28;20497;-72
2022/01/15 00:55:09;;;;;;;50.13;26.85;;;4.20;99.90;;;2.20;100.00;102612.50;4150087;28;20120;-72
2022/01/15 00:57:10;;;;;;;47.85;25.42;;;2.90;99.90;;;2.15;100.00;102601.41;4150115;28;20057;-72
2022/01/15 00:59:11;;;;;;;47.58;25.20;;;3.20;99.90;;;2.23;100.00;102610.63;4150237;28;20040;-72
2022/01/15 01:01:12;;;;;;;51.67;26.63;;;2.90;99.90;;;2.28;100.00;102607.84;4166542;28;20036;-72
2022/01/15 01:03:13;;;;;;;41.60;25.52;;;3.10;99.90;;;2.31;100.00;102612.09;4166534;28;20029;-72
2022/01/15 01:05:15;;;;;;;40.38;22.75;;;3.00;99.90;;;2.21;99.85;102615.03;4166424;28;20040;-72
2022/01/15 01:07:16;;;;;;;44.65;23.15;;;3.20;99.90;;;2.13;100.00;102611.88;4165802;28;21259;-72
2022/01/15 01:09:17;;;;;;;47.28;26.20;;;2.30;99.90;;;2.00;100.00;102597.59;4166175;28;20477;-72
2022/01/15 01:11:29;;;;;;;42.05;24.75;;;3.50;99.90;;;2.01;100.00;102603.66;4166362;28;20044;-72
2022/01/15 01:24:54;;;;;;;41.05;22.15;;;3.20;99.90;;;2.43;99.54;102589.03;4149939;28;20555;-72
2022/01/15 01:27:00;;;;;;;43.75;22.75;;;2.70;99.90;;;2.32;100.00;102587.75;4133101;28;20030;-72
2022/01/15 01:29:12;;;;;;;43.47;24.80;;;3.10;99.90;;;2.11;100.00;102582.47;4165612;28;20030;-73
2022/01/15 01:31:19;;;;;;;42.03;24.25;;;3.10;99.90;;;2.35;100.00;102587.63;4149750;28;20033;-72
2022/01/15 01:35:41;;;;;;;45.00;25.48;;;2.30;99.90;;;2.54;99.90;102565.19;4149870;28;20026;-72
2022/01/15 01:37:48;;;;;;;46.88;24.65;;;1.30;99.90;;;2.55;98.98;102559.91;4148753;28;20036;-72
2022/01/15 01:39:54;;;;;;;41.60;22.25;;;3.20;99.90;;;2.47;99.43;102556.78;4149473;28;20524;-72
2022/01/15 01:42:11;;;;;;;43.00;23.45;;;3.20;99.90;;;2.34;100.00;102568.56;4149591;28;20030;-73
2022/01/15 01:44:16;;;;;;;42.88;23.40;;;1.70;99.90;;;2.22;100.00;102562.06;4135305;28;20036;-72
2022/01/15 01:48:21;;;;;;;42.03;25.38;;;3.20;99.90;;;2.48;100.00;102568.88;4156965;28;20109;-71
2022/01/15 01:50:25;;;;;;;43.05;22.15;;;5.40;99.90;;;2.35;100.00;102561.59;4155247;28;20122;-72
2022/01/15 01:52:26;;;;;;;;;;;4.00;99.90;;;2.10;100.00;102559.06;4149965;28;20129;-72
2022/01/15 01:54:27;;;;;;;44.90;23.48;;;2.90;99.90;;;2.05;100.00;102567.06;4149466;28;20317;-72
2022/01/15 01:56:29;;;;;;;46.42;25.73;;;3.10;99.90;;;2.07;100.00;102565.25;4149451;28;20092;-72
2022/01/15 01:58:30;;;;;;;45.50;24.77;;;2.80;99.90;;;1.89;100.00;102572.88;4160768;28;20034;-72
2022/01/15 02:00:32;;;;;;;46.05;26.13;;;2.10;99.90;;;1.59;100.00;102564.41;4178023;28;20627;-72
2022/01/15 02:02:33;;;;;;;53.78;24.92;;;1.30;99.90;;;1.56;100.00;102554.97;4133240;28;20031;-72
2022/01/15 02:04:34;;;;;;;49.45;24.98;;;2.80;99.90;;;1.62;100.00;102569.50;4157409;28;20060;-72
2022/01/15 02:06:36;;;;;;;47.15;24.33;;;2.40;99.90;;;1.67;100.00;102567.63;4165720;28;20029;-72
2022/01/15 02:08:38;;;;;;;45.03;23.30;;;2.50;99.90;;;1.65;100.00;102565.06;4148976;28;20042;-72
2022/01/15 02:10:40;;;;;;;52.63;25.92;;;0.50;99.90;;;1.67;100.00;102567.63;4165891;28;20075;-72
2022/01/15 02:12:42;;;;;;;47.72;25.83;;;;;;;1.65;100.00;102569.41;4149423;28;20124;-72
2022/01/15 02:14:43;;;;;;;51.20;26.08;;;2.60;99.90;;;1.80;100.00;102566.25;4166952;28;20029;-72
2022/01/15 02:16:44;;;;;;;52.08;27.73;;;2.90;99.90;;;1.93;100.00;102570.13;4167083;28;20496;-72
2022/01/15 02:18:45;;;;;;;56.08;25.73;;;0.70;99.90;;;1.90;100.00;102574.56;4149323;28;20045;-72
2022/01/15 02:21:02;;;;;;;47.58;26.02;;;2.70;99.90;;;1.90;100.00;102570.22;4157434;28;20029;-72
2022/01/15 02:25:49;;;;;;;45.00;25.77;;;2.70;99.90;;;1.95;100.00;102563.09;4150786;28;20049;-72
2022/01/15 02:27:50;;;;;;;44.38;23.17;;;2.80;99.90;;;2.10;100.00;102553.88;4133822;28;20125;-72
2022/01/15 02:29:51;;;;;;;46.95;24.60;;;3.40;99.90;;;2.11;100.00;102548.63;4165542;28;20032;-72
2022/01/15 02:31:53;;;;;;;50.35;27.33;;;2.40;99.90;;;2.03;100.00;102555.84;4149166;28;20071;-72
2022/01/15 02:33:57;;;;;;;47.17;25.33;;;2.90;99.90;;;2.02;100.00;102546.34;4175333;28;20064;-72
2022/01/15 02:35:59;;;;;;;46.85;25.25;;;2.70;99.90;;;2.11;100.00;102552.97;4154910;28;20436;-72
2022/01/15 02:38:09;;;;;;;43.88;23.20;;;2.80;99.90;;;2.10;100.00;102540.84;4132857;28;20034;-72
2022/01/15 02:40:11;;;;;;;53.75;26.70;;;2.80;99.90;;;1.98;100.00;102526.53;4150497;28;20026;-72
2022/01/15 02:42:12;;;;;;;50.13;26.27;;;3.60;99.90;;;2.02;100.00;102532.50;4149186;28;20042;-72
2022/01/15 02:44:19;;;;;;;47.65;25.35;;;2.80;99.90;;;2.10;100.00;102531.28;4132871;28;20035;-72
2022/01/15 02:48:27;;;;;;;46.33;24.63;;;2.70;99.90;;;2.24;100.00;102518.59;4157073;28;20034;-72
2022/01/15 02:50:30;;;;;;;47.35;25.55;;;3.30;99.90;;;2.17;100.00;102517.16;4157119;28;20038;-73
2022/01/15 02:52:31;;;;;;;49.35;27.08;;;4.40;99.90;;;2.06;100.00;102513.25;4151965;28;20053;-72
2022/01/15 02:54:32;;;;;;;56.20;28.80;;;1.60;99.90;;;2.18;100.00;102513.63;4157924;28;20034;-72
2022/01/15 02:56:41;;;;;;;50.53;25.20;;;3.00;99.90;;;2.32;100.00;102520.91;4168144;28;20025;-72
2022/01/15 02:58:43;;;;;;;57.15;28.67;;;4.10;99.90;;;2.18;100.00;102505.81;4155478;28;20041;-72
2022/01/15 03:00:45;;;;;;;52.78;27.17;;;3.10;99.90;;;2.31;100.00;102507.94;4151945;28;20057;-72
2022/01/15 03:02:46;;;;;;;55.78;29.02;;;3.70;99.90;;;2.18;100.00;102504.97;4151968;28;20034;-72
2022/01/15 03:04:48;;;;;;;54.92;26.98;;;4.10;99.90;;;2.06;100.00;102508.88;4152077;28;20533;-72
2022/01/15 03:06:49;;;;;;;54.28;26.70;;;5.00;99.90;;;1.96;100.00;102493.69;4135490;28;20034;-72
2022/01/15 03:08:52;;;;;;;51.08;26.77;;;3.40;99.90;;;2.08;100.00;102493.22;4151453;28;20092;-72
2022/01/15 03:10:53;;;;;;;52.38;29.83;;;2.90;99.90;;;1.98;100.00;102499.66;4168326;28;20452;-72
2022/01/15 03:12:55;;;;;;;55.28;27.10;;;1.80;99.90;;;1.81;100.00;102484.72;4168204;28;20038;-72
2022/01/15 03:15:01;;;;;;;59.05;29.33;;;2.50;99.90;;;1.90;100.00;102489.56;4151703;28;20026;-71
2022/01/15 03:17:02;;;;;;;52.95;27.38;;;3.60;99.90;;;1.63;100.00;102482.78;4168007;28;20467;-72
2022/01/15 03:19:03;;;;;;;53.42;27.30;;;3.20;99.90;;;1.71;100.00;102482.50;4168141;28;20136;-72
2022/01/15 03:21:05;;;;;;;56.13;28.58;;;2.50;99.90;;;1.67;100.00;102463.56;4168099;28;20064;-72
2022/01/15 03:23:06;;;;;;;58.25;28.70;;;2.60;99.90;;;1.68;100.00;102470.44;4167604;28;20025;-71
2022/01/15 03:25:08;;;;;;;58.42;28.45;;;2.40;99.90;;;1.76;100.00;102483.19;4163646;28;20033;-71
2022/01/15 03:27:09;;;;;;;50.13;26.33;;;2.60;99.90;;;1.91;100.00;102467.81;4151316;28;20030;-71
2022/01/15 03:29:10;;;;;;;56.67;27.27;;;2.60;99.90;;;1.84;100.00;102473.34;4151631;28;20057;-72
2022/01/15 03:31:11;;;;;;;53.75;27.50;;;2.60;99.90;;;1.96;100.00;102465.91;4136294;28;20053;-72
2022/01/15 03:33:12;;;;;;;54.88;25.98;;;2.80;99.90;;;1.93;100.00;102471.25;4167835;28;20516;-72
2022/01/15 03:35:16;;;;;;;54.20;27.25;;;2.30;99.90;;;2.14;100.00;102470.41;4167884;28;20159;-72
2022/01/15 03:37:17;;;;;;;57.17;27.23;;;2.90;99.90;;;2.05;100.00;102465.56;4157548;28;20489;-72
2022/01/15 03:39:18;;;;;;;52.45;26.23;;;2.10;99.90;;;2.02;100.00;102464.81;4134841;28;20038;-72
2022/01/15 03:41:19;;;;;;;61.65;30.15;;;2.70;99.90;;;1.84;100.00;102455.13;4157331;28;20025;-71
2022/01/15 03:43:21;;;;;;;54.70;28.45;;;3.10;99.90;;;1.96;100.00;102470.25;4168894;28;20095;-72
2022/01/15 03:45:22;;;;;;;60.03;27.85;;;3.80;99.90;;;2.06;100.00;102462.03;4167674;28;20029;-72
2022/01/15 03:47:23;;;;;;;51.20;25.60;;;2.80;99.90;;;2.04;100.00;102455.19;4168600;28;20055;-72
2022/01/15 03:49:24;;;;;;;57.67;26.45;;;1.70;99.90;;;1.90;100.00;102463.53;4165966;28;20041;-71
2022/01/15 03:51:25;;;;;;;54.53;26.23;;;3.60;99.90;;;2.01;100.00;102465.72;4151281;28;20422;-71
2022/01/15 03:53:26;;;;;;;60.17;27.52;;;3.10;99.90;;;1.99;100.00;102467.53;4150822;28;20124;-72
2022/01/15 03:55:27;;;;;;;56.85;27.65;;;2.70;99.90;;;2.03;100.00;102488.16;4163843;28;20029;-72
2022/01/15 03:57:28;;;;;;;55.40;28.90;;;2.90;99.90;;;2.09;100.00;102472.31;4150765;28;20041;-72
2022/01/15 03:59:29;;;;;;;51.53;27.52;;;3.70;99.90;;;2.00;100.00;102477.88;4167322;28;20035;-72
2022/01/15 04:01:30;;;;;;;59.90;28.77;;;3.10;99.90;;;2.02;100.00;102490.84;4157347;28;20048;-72
2022/01/15 04:03:31;;;;;;;49.63;25.88;;;2.70;99.90;;;1.92;100.00;102492.09;4134681;28;20053;-72
2022/01/15 04:05:32;;;;;;;46.17;23.77;;;2.80;99.90;;;1.98;100.00;102471.03;4177494;28;20040;-72
2022/01/15 04:07:33;;;;;;;49.72;26.48;;;2.70;99.90;;;2.05;100.00;102478.56;4150517;28;20050;-72
2022/01/15 04:09:34;;;;;;;53.85;27.75;;;2.60;99.90;;;2.10;100.00;102476.63;4150709;28;20033;-72
2022/01/15 04:11:35;;;;;;;54.30;24.33;;;4.70;99.90;;;2.10;100.00;102481.84;4134662;28;20030;-71
2022/01/15 04:13:36;;;;;;;58.35;26.48;;;3.10;99.90;;;2.08;100.00;102481.06;4166302;28;20036;-72
2022/01/15 04:15:36;;;;;;;52.38;24.83;;;2.90;99.90;;;2.34;100.00;102474.81;4162701;28;20026;-71
2022/01/15 04:17:37;;;;;;;56.25;27.85;;;4.00;99.90;;;2.28;100.00;102474.19;4134418;28;20540;-72
2022/01/15 04:19:40;;;;;;;52.28;25.65;;;3.00;99.90;;;2.25;100.00;102475.19;4134491;28;20040;-71
2022/01/15 04:21:41;;;;;;;45.15;25.15;;;4.90;99.90;;;2.19;100.00;102467.59;4154008;28;20037;-72
2022/01/15 04:23:42;;;;;;;55.97;28.17;;;2.90;99.90;;;2.13;100.00;102457.44;4150497;28;20038;-72
2022/01/15 04:25:43;;;;;;;55.67;26.02;;;0.50;99.90;;;2.02;100.00;102473.47;4134669;28;20121;-72
2022/01/15 04:27:45;;;;;;;54.45;27.35;;;2.20;99.90;;;2.00;100.00;102474.47;4158094;28;20563;-71
2022/01/15 04:29:46;;;;;;;57.22;26.45;;;0.60;99.90;;;2.07;100.00;102473.28;4178904;28;20495;-72
2022/01/15 04:31:48;;;;;;;52.67;27.33;;;2.70;99.90;;;2.12;100.00;102477.41;4134335;28;20031;-71
2022/01/15 04:33:49;;;;;;;56.83;27.48;;;3.20;99.90;;;2.37;100.00;102468.63;4150559;28;20018;-71
2022/01/15 04:35:50;;;;;;;56.05;26.80;;;3.20;99.90;;;2.22;100.00;102467.50;4150520;28;20072;-71
2022/01/15 04:37:55;;;;;;;53.55;26.20;;;3.30;99.90;;;2.23;100.00;102459.63;4165730;28;20033;-71
2022/01/15 04:39:56;;;;;;;51.85;26.63;;;3.00;99.90;;;2.31;100.00;102451.50;4150765;28;20495;-71
2022/01/15 04:41:57;;;;;;;63.63;28.25;;;3.00;99.90;;;2.27;100.00;102460.34;4166739;28;20025;-72
2022/01/15 04:43:58;;;;;;;72.82;32.67;;;2.00;99.90;;;2.31;100.00;102459.31;4167921;28;20029;-72
2022/01/15 04:45:59;;;;;;;74.13;33.85;;;2.90;99.90;;;2.23;100.00;102444.00;4166587;28;20030;-72
2022/01/15 04:48:00;;;;;;;62.13;28.80;;;5.50;99.90;;;2.21;100.00;102439.78;4166367;28;20099;-71
2022/01/15 04:50:04;;;;;;;61.35;28.98;;;2.90;99.90;;;2.35;100.00;102449.63;4158791;28;20018;-71
2022/01/15 04:52:05;;;;;;;53.90;26.50;;;3.60;99.90;;;2.28;100.00;102442.97;4134190;28;20076;-72
2022/01/15 04:54:06;;;;;;;57.05;26.73;;;3.00;99.90;;;2.31;100.00;102440.22;4150025;28;20453;-71
2022/01/15 04:56:07;;;;;;;54.83;26.60;;;4.80;99.90;;;2.16;100.00;102429.53;4150082;28;20060;-71
2022/01/15 04:58:08;;;;;;;48.90;25.48;;;2.60;99.90;;;2.18;100.00;102427.72;4157829;28;20029;-72
2022/01/15 05:00:17;;;;;;;53.15;26.60;;;6.20;99.90;;;2.50;100.00;102435.97;4161272;28;20068;-72
2022/01/15 05:02:17;;;;;;;55.65;27.30;;;2.50;99.90;;;2.43;100.00;102434.53;4150111;28;20096;-72
2022/01/15 05:04:19;;;;;;;54.17;27.60;;;3.70;99.90;;;2.29;100.00;102427.28;4150058;28;20029;-72
2022/01/15 05:06:20;;;;;;;53.78;24.40;;;3.00;99.90;;;2.22;100.00;102426.69;4166366;28;20489;-72
2022/01/15 05:08:21;;;;;;;54.72;25.70;;;1.50;99.90;;;2.31;100.00;102430.66;4149445;28;20050;-72
2022/01/15 05:10:27;;;;;;;55.08;26.98;;;3.00;99.90;;;2.33;100.00;102413.22;4150180;28;20018;-72
2022/01/15 05:12:32;;;;;;;55.45;27.33;;;3.60;99.90;;;2.29;100.00;102416.03;4167547;28;20551;-72
2022/01/15 05:14:33;;;;;;;51.75;26.05;;;3.00;99.90;;;2.21;100.00;102424.97;4166271;28;20051;-72
2022/01/15 05:16:34;;;;;;;59.55;27.40;;;3.40;99.90;;;2.17;100.00;102423.44;4154475;28;20109;-72
2022/01/15 05:18:35;;;;;;;52.58;26.17;;;3.00;99.90;;;2.45;100.00;102432.72;4152786;28;20040;-72
2022/01/15 05:20:40;;;;;;;52.83;27.23;;;3.10;99.90;;;2.31;100.00;102422.00;4166252;28;20108;-71
2022/01/15 05:22:42;;;;;;;53.03;25.45;;;2.70;99.90;;;2.43;100.00;102424.13;4155938;28;20029;-72
2022/01/15 05:24:43;;;;;;;53.92;26.00;;;3.10;99.90;;;2.41;100.00;102425.94;4133742;28;20030;-72
2022/01/15 05:26:44;;;;;;;52.47;27.75;;;2.80;99.90;;;2.33;100.00;102425.41;4165914;28;20033;-72
2022/01/15 05:28:45;;;;;;;63.08;27.77;;;3.20;99.90;;;2.44;100.00;102418.00;4173006;28;20555;-72
2022/01/15 05:30:45;;;;;;;52.47;25.52;;;3.20;99.90;;;2.42;100.00;102417.22;4172240;28;20021;-72
2022/01/15 05:32:46;;;;;;;58.95;29.13;;;3.00;99.90;;;2.40;100.00;102406.00;4152743;28;20098;-72
2022/01/15 05:34:47;;;;;;;54.28;26.63;;;2.30;99.90;;;2.53;100.00;102418.47;4149605;28;20018;-72
2022/01/15 05:36:48;;;;;;;59.55;28.33;;;3.10;99.90;;;2.63;100.00;102419.78;4139752;28;20520;-72
2022/01/15 05:38:49;;;;;;;54.22;28.90;;;3.10;99.90;;;2.54;100.00;102414.13;4175526;28;20025;-72
2022/01/15 05:40:50;;;;;;;55.08;27.17;;;2.80;99.90;;;2.48;100.00;102416.97;4156367;28;20097;-72
2022/01/15 05:42:52;;;;;;;52.55;27.35;;;4.20;99.90;;;2.42;100.00;102418.06;4152354;28;20029;-72
2022/01/15 05:44:53;;;;;;;56.40;28.25;;;3.50;99.90;;;2.32;100.00;102419.34;4149585;28;20030;-72
2022/01/15 05:46:54;;;;;;;63.80;27.70;;;3.20;99.90;;;2.39;100.00;102412.16;4133170;28;20033;-72
2022/01/15 05:48:55;;;;;;;62.30;29.17;;;4.00;99.90;;;2.41;100.00;102415.53;4165075;28;20049;-72
2022/01/15 05:50:56;;;;;;;56.42;27.80;;;5.40;99.90;;;2.42;100.00;102420.66;4150796;28;20038;-72
2022/01/15 05:52:58;;;;;;;63.30;30.55;;;3.20;99.90;;;2.44;100.00;102418.00;4154513;28;20049;-72
2022/01/15 05:55:00;;;;;;;54.95;27.52;;;3.50;99.90;;;2.40;100.00;102419.03;4158119;28;20032;-72
2022/01/15 05:57:01;;;;;;;61.42;29.92;;;3.30;99.90;;;2.33;100.00;102413.22;4166965;28;20026;-71
2022/01/15 05:59:02;;;;;;;63.38;28.70;;;3.60;99.90;;;2.48;100.00;102417.81;4165825;28;20528;-72
2022/01/15 06:01:03;;;;;;;59.67;28.25;;;3.50;99.90;;;2.52;100.00;102418.53;4165976;28;20520;-72
2022/01/15 06:03:04;;;;;;;59.42;28.08;;;3.90;99.90;;;2.55;100.00;102428.81;4165942;28;20029;-72
2022/01/15 06:05:05;;;;;;;51.50;26.85;;;3.20;99.90;;;2.47;100.00;102394.44;4177539;28;20119;-72
2022/01/15 06:07:06;;;;;;;59.15;29.67;;;3.80;99.90;;;2.35;100.00;102415.78;4183115;28;20091;-72
2022/01/15 06:09:07;;;;;;;64.13;30.65;;;3.20;99.90;;;2.34;100.00;102421.88;4160597;28;20046;-72
2022/01/15 06:11:09;;;;;;;61.10;29.13;;;3.70;99.90;;;2.38;100.00;102405.25;4149480;28;20061;-72
2022/01/15 06:13:10;;;;;;;66.82;28.77;;;3.20;99.90;;;2.55;100.00;102415.78;4149462;28;20026;-72
2022/01/15 06:15:14;;;;;;;57.15;27.40;;;2.60;99.90;;;2.49;100.00;102409.09;4154303;28;20065;-71
2022/01/15 06:17:15;;;;;;;58.55;29.10;;;3.10;99.90;;;2.45;100.00;102417.09;4161471;28;20041;-72
2022/01/15 06:19:17;;;;;;;60.30;28.92;;;3.20;99.90;;;2.51;100.00;102416.84;4149133;28;20069;-72
2022/01/15 06:21:18;;;;;;;51.80;26.95;;;3.20;99.90;;;2.43;100.00;102421.50;4151861;28;20030;-72
2022/01/15 06:23:19;;;;;;;52.95;27.83;;;3.50;99.90;;;2.34;100.00;102412.31;4152395;28;20053;-72
2022/01/15 06:25:20;;;;;;;56.20;26.65;;;2.80;99.90;;;2.32;100.00;102421.09;4152380;28;20056;-72
2022/01/15 06:27:20;;;;;;;61.22;29.73;;;2.20;99.90;;;2.46;100.00;102408.38;4168534;28;20033;-72
2022/01/15 06:29:22;;;;;;;57.70;27.63;;;3.20;99.90;;;2.49;100.00;102410.84;4168862;28;20075;-72
2022/01/15 06:31:23;;;;;;;59.22;29.10;;;3.20;99.90;;;2.66;100.00;102409.22;4152329;28;20032;-72
2022/01/15 06:33:24;;;;;;;55.65;28.45;;;3.20;99.90;;;2.58;100.00;102416.53;4169981;28;20029;-72
2022/01/15 06:35:25;;;;;;;60.13;28.13;;;3.40;99.90;;;2.63;100.00;102408.50;4168752;28;20048;-72
2022/01/15 06:37:26;;;;;;;57.90;29.30;;;3.40;99.90;;;2.84;100.00;102418.00;4168615;28;20504;-72
2022/01/15 06:39:27;;;;;;;53.83;26.52;;;3.10;99.90;;;2.67;100.00;102415.28;4169552;28;20041;-72
2022/01/15 06:41:28;;;;;;;59.38;27.52;;;3.90;99.90;;;2.63;100.00;102408.50;4168703;28;20100;-72
2022/01/15 06:43:28;;;;;;;56.10;29.25;;;3.60;99.90;;;2.63;100.00;102417.16;4178980;28;20403;-72
2022/01/15 06:45:30;;;;;;;57.92;29.02;;;4.00;99.90;;;2.64;100.00;102418.00;4184983;28;20040;-72
2022/01/15 06:47:31;;;;;;;57.05;26.98;;;3.50;99.90;;;2.69;100.00;102416.91;4154136;28;20437;-72
2022/01/15 06:49:32;;;;;;;61.38;28.80;;;3.10;99.90;;;2.71;100.00;102409.03;4151828;28;20022;-72
2022/01/15 06:51:33;;;;;;;51.03;27.02;;;5.10;99.90;;;2.64;100.00;102403.25;4161339;28;20018;-72
2022/01/15 06:53:34;;;;;;;55.97;27.98;;;3.60;99.90;;;2.71;100.00;102417.72;4152028;28;20030;-72
2022/01/15 06:55:35;;;;;;;59.95;28.67;;;3.80;99.90;;;2.67;100.00;102410.06;4165673;28;20108;-71
2022/01/15 06:57:37;;;;;;;59.75;29.10;;;3.90;99.90;;;2.67;100.00;102412.69;4151930;28;20533;-72
2022/01/15 06:59:37;;;;;;;59.08;28.95;;;3.30;99.90;;;2.50;100.00;102404.72;4168365;28;20108;-72
2022/01/15 07:01:38;;;;;;;59.13;29.60;;;3.30;99.90;;;2.67;100.00;102417.88;4168323;28;20025;-72
2022/01/15 07:03:39;;;;;;;57.28;29.25;;;6.00;99.90;;;2.53;100.00;102402.00;4169391;28;20029;-72
2022/01/15 07:05:40;;;;;;;52.80;28.35;;;5.50;99.90;;;2.71;100.00;102414.25;4169426;28;20539;-72
2022/01/15 07:07:45;;;;;;;51.60;28.30;;;3.40;99.90;;;2.64;100.00;102415.41;4167788;28;20049;-72
2022/01/15 07:09:46;;;;;;;51.08;27.30;;;4.10;99.90;;;2.62;100.00;102409.44;4178432;28;20028;-72
2022/01/15 07:11:47;;;;;;;56.65;27.38;;;3.30;99.90;;;2.74;100.00;102414.13;4183767;28;20029;-72
2022/01/15 07:13:48;;;;;;;50.53;26.92;;;2.00;99.90;;;2.73;100.00;102421.09;4139022;28;20092;-72
2022/01/15 07:15:49;;;;;;;51.80;26.90;;;3.30;99.90;;;2.55;100.00;102423.59;4161991;28;20525;-72
2022/01/15 07:17:50;;;;;;;51.83;26.13;;;3.60;99.90;;;2.56;100.00;102412.28;4167771;28;20397;-72
2022/01/15 07:19:51;;;;;;;51.38;27.35;;;3.60;99.90;;;2.65;100.00;102424.94;4167808;28;20120;-72
2022/01/15 07:21:52;;;;;;;59.05;27.02;;;3.40;99.90;;;2.63;100.00;102418.91;4180719;28;20025;-72
2022/01/15 07:23:53;;;;;;;60.53;29.75;;;3.80;99.90;;;2.64;100.00;102429.28;4167536;28;20120;-72
2022/01/15 07:25:54;;;;;;;59.97;29.80;;;5.50;99.90;;;2.73;100.00;102420.25;4168870;28;20036;-72
2022/01/15 07:27:54;;;;;;;60.17;29.90;;;2.70;99.90;;;2.70;100.00;102418.63;4167552;28;20033;-72
2022/01/15 07:29:55;;;;;;;54.95;28.90;;;3.30;99.90;;;2.66;100.00;102419.63;4151383;28;20092;-72
2022/01/15 07:31:57;;;;;;;54.60;28.77;;;2.20;99.90;;;2.57;100.00;102422.63;4167828;28;20026;-72
2022/01/15 07:33:58;;;;;;;58.20;31.20;;;3.50;99.90;;;2.58;100.00;102416.53;4167924;28;20060;-72
2022/01/15 07:35:59;;;;;;;59.47;28.30;;;3.30;99.90;;;2.49;100.00;102413.44;4166412;28;20029;-72
2022/01/15 07:38:00;;;;;;;63.88;31.45;;;3.20;99.90;;;2.58;100.00;102413.06;4177212;28;20026;-72
2022/01/15 07:40:03;;;;;;;54.88;27.95;;;3.20;99.90;;;2.44;100.00;102410.19;4148491;28;20029;-71
2022/01/15 07:42:06;;;;;;;59.63;29.05;;;3.20;99.90;;;2.46;100.00;102424.00;4185434;28;20036;-72
2022/01/15 07:44:07;;;;;;;51.42;29.92;;;3.00;99.90;;;2.41;100.00;102411.16;4156595;28;20060;-72
2022/01/15 07:46:08;;;;;;;62.63;29.30;;;3.00;99.90;;;2.34;100.00;102420.13;4151160;28;20062;-72
2022/01/15 07:48:09;;;;;;;54.35;28.08;;;1.70;99.90;;;2.18;100.00;102414.69;4156863;28;20029;-72
2022/01/15 07:50:23;;;;;;;50.35;25.98;;;3.60;99.90;;;2.33;100.00;102415.81;4167369;28;20515;-72
2022/01/15 07:52:24;;;;;;;55.08;27.65;;;2.50;99.90;;;2.28;100.00;102419.53;4152018;28;20033;-72
2022/01/15 07:54:25;;;;;;;55.30;28.33;;;3.00;99.90;;;2.31;100.00;102419.41;4167169;28;20033;-72
2022/01/15 07:56:26;;;;;;;52.97;26.95;;;2.10;99.90;;;2.28;100.00;102416.94;4167218;28;20436;-71
2022/01/15 07:58:27;;;;;;;52.45;26.88;;;2.20;99.90;;;2.14;100.00;102401.88;4151051;28;20030;-71
2022/01/15 08:00:28;;;;;;;54.08;27.17;;;2.90;99.90;;;2.18;100.00;102406.88;4166783;28;20041;-72
2022/01/15 08:02:29;;;;;;;55.45;28.08;;;3.50;99.90;;;2.02;100.00;102397.16;4167486;28;20033;-72
2022/01/15 08:04:30;;;;;;;54.08;27.83;;;2.60;99.90;;;1.92;100.00;102407.06;4167150;28;20049;-72
2022/01/15 08:06:32;;;;;;;50.95;26.05;;;2.50;99.90;;;1.89;100.00;102412.41;4150465;28;20042;-72
2022/01/15 08:08:33;;;;;;;50.70;26.45;;;3.40;99.90;;;2.02;100.00;102407.56;4176467;28;20056;-72
2022/01/15 08:10:34;;;;;;;46.33;25.00;;;3.10;99.90;;;1.99;100.00;102411.16;4137790;28;20100;-72
2022/01/15 08:12:48;;;;;;;53.55;25.42;;;2.40;99.90;;;1.92;100.00;102408.81;4168265;28;20224;-72
2022/01/15 08:14:50;;;;;;;50.73;25.23;;;2.60;99.90;;;1.96;100.00;102402.59;4167080;28;20029;-72
2022/01/15 08:16:50;;;;;;;45.88;24.65;;;2.50;99.90;;;1.98;100.00;102414.66;4150755;28;20108;-71
2022/01/15 08:18:51;;;;;;;49.13;26.30;;;3.40;99.90;;;1.96;100.00;102406.06;4194947;28;20089;-72
2022/01/15 08:20:52;;;;;;;47.08;24.83;;;2.90;99.90;;;2.20;100.00;102420.72;4158759;28;20073;-72
2022/01/15 08:22:53;;;;;;;43.20;24.25;;;3.80;99.90;;;2.05;100.00;102417.84;4154504;28;20469;-72
2022/01/15 08:24:54;;;;;;;45.35;23.50;;;2.70;99.90;;;2.14;100.00;102425.31;4150337;28;20030;-72
2022/01/15 08:26:55;;;;;;;45.88;24.77;;;2.50;99.90;;;2.26;100.00;102413.53;4138569;28;20535;-72
2022/01/15 08:28:56;;;;;;;45.85;24.88;;;3.00;99.90;;;2.30;100.00;102404.72;4158332;28;20025;-72
2022/01/15 08:30:57;;;;;;;52.42;26.35;;;2.90;99.90;;;2.24;100.00;102424.00;4183140;28;20093;-72
2022/01/15 08:32:58;;;;;;;47.47;25.88;;;1.60;99.90;;;2.15;100.00;102417.41;4150318;28;20073;-72
2022/01/15 08:34:59;;;;;;;47.22;25.63;;;4.70;99.90;;;2.35;100.00;102426.19;4150202;28;20038;-72
2022/01/15 08:37:00;;;;;;;46.50;24.58;;;3.00;99.90;;;2.37;100.00;102426.97;4166174;28;20034;-72
2022/01/15 08:39:01;;;;;;;51.95;26.92;;;3.90;99.90;;;2.45;100.00;102423.13;4138561;28;20033;-72
2022/01/15 08:41:02;;;;;;;51.38;26.65;;;3.30;99.90;;;2.60;100.00;102416.44;4151309;28;20034;-72
2022/01/15 08:43:04;;;;;;;47.95;24.88;;;3.00;99.90;;;2.78;100.00;102420.88;4154884;28;20049;-72
2022/01/15 08:45:08;;;;;;;50.03;25.13;;;4.90;99.90;;;2.77;100.00;102434.84;4175109;28;20120;-72